Auke Bay, Alaska
Current Conditions -  °F | °C
As of 11:53 PM on Thursday 27 Nov 2014 (Local Time) from PAJN Reporting Station
Clear Clear  
Wind Chill: 16°   Ceiling: Unl
Heat Index: 22°   Visibility: 10mi
Dew Point: -1°   Wind: 5mph
Humidity: 37%   Direction: 120°ESE
Pressure: 30.26"   Gusts: NA
Location:  58.38°N, 134.67°W
Report Text: PAJN 280853Z 12004KT 10SM CLR M06/M18 A3026 RMK AO2 SLP245 T10561183 400221061 51016 $
Loading
Personal Weather Stations






























Interactive Weather Map New forecast layout! Learn more

10-Day Weather Forecast

Advertisements
Track Severe Weather on mobile